< < Back
Terminal Aerodrome Forecast


Current Version              Previous Versions:   1  2  3  4  5  6  7  8  9  

Terminal Aerodrome Forecast

957
FTUS42 KTAE 011122
TAFTLH
TAF
KTLH 011122Z 0112/0212 13004KT P6SM SCT100 SCT250
     FM011300 17009KT P6SM SCT040 SCT250
     FM020000 00000KT P6SM SCT250=



Latest METAR

569
SAUS80 KWBC 011300 RRC
MTRTLH
METAR KTLH 011253Z 14005KT 10SM FEW100 BKN250 26/21 A3002 RMK AO2 SLP166
T02560211


USA.gov is the U.S. government's official web portal to all federal, state and local government web resources and services.